BNF weather

Baranof Warm Springs Float and Seaplane Base
Baranof, Alaska, United States

Public forecast

Using degrees Fahrenheit for public forecast. Weather courtesy of forecast.io.

METAR (pilot weather report)

Closest report is Sitka Rocky Gutierrez Airport, 17.4 nm (32.3 km) W. Retrieved 2019/09/21 09:26 UTC (27 minutes ago):

PASI 210926Z 17005KT 7SM -RA BKN023 BKN028 OVC035 14/12 A2946

TAF (pilot weather forecast)

Closest forecast is Sitka Rocky Gutierrez Airport, 17.4 nm (32.3 km) W. Retrieved 2019/09/21 06:36 UTC (3 hours ago):

TAF PASI 210533Z 2106/2206 18014G24KT 5SM -RA BR SCT008 BKN015 OVC035 WS020/19035KT TEMPO 2106/2108 2SM -RA BR BKN008 FM210800 18011G18KT 5SM -RA SCT008 BKN015 OVC040 TEMPO 2110/2114 2SM -RA BR BKN008 FM211500 18008KT P6SM -SHRA OVC025